createdAt,value
2018-07-11T11:24:43.184Z,1010.19
2018-07-11T11:25:43.055Z,1010.17
2018-07-11T11:26:43.186Z,1010.23
2018-07-11T11:27:42.951Z,1010.14
2018-07-11T11:28:42.894Z,1010.24
2018-07-11T11:29:44.071Z,1010.21
2018-07-11T11:30:42.840Z,1010.21
2018-07-11T11:31:42.821Z,1010.21
2018-07-11T11:32:42.867Z,1010.14
2018-07-11T11:33:42.926Z,1010.27
2018-07-11T11:34:42.810Z,1010.22
2018-07-11T11:35:42.834Z,1010.21
2018-07-11T11:36:42.774Z,1010.20
2018-07-11T11:37:42.842Z,1010.15
2018-07-11T11:38:42.756Z,1010.18
2018-07-11T11:39:42.747Z,1010.23
2018-07-11T11:40:42.723Z,1010.20
2018-07-11T11:41:43.025Z,1010.20
2018-07-11T11:42:42.890Z,1010.26
2018-07-11T11:43:42.697Z,1010.20
2018-07-11T11:44:42.686Z,1010.22
2018-07-11T11:45:42.683Z,1010.17
2018-07-11T11:46:42.682Z,1010.13
2018-07-11T11:47:42.719Z,1010.13
2018-07-11T11:48:42.863Z,1010.15
2018-07-11T11:49:42.887Z,1010.14
2018-07-11T11:50:42.766Z,1010.17
2018-07-11T11:51:42.669Z,1010.14
2018-07-11T11:52:43.256Z,1010.20
2018-07-11T11:53:42.634Z,1010.21
2018-07-11T11:54:42.583Z,1010.16
2018-07-11T11:55:42.575Z,1010.19
2018-07-11T11:56:42.563Z,1010.22
2018-07-11T11:57:42.882Z,1010.20
2018-07-11T11:58:42.534Z,1010.22
2018-07-11T11:59:42.721Z,1010.17
2018-07-11T12:00:42.568Z,1010.21
2018-07-11T12:01:42.573Z,1010.22
2018-07-11T12:02:42.579Z,1010.26
2018-07-11T12:03:42.483Z,1010.23
2018-07-11T12:04:42.768Z,1010.20
2018-07-11T12:05:42.687Z,1010.24
2018-07-11T12:06:42.441Z,1010.16
2018-07-11T12:07:42.509Z,1010.20
2018-07-11T12:08:42.418Z,1010.24
2018-07-11T12:09:42.406Z,1010.16
2018-07-11T12:10:42.491Z,1010.17
2018-07-11T12:11:42.387Z,1010.16
2018-07-11T12:12:42.454Z,1010.22
2018-07-11T12:13:42.361Z,1010.09
2018-07-11T12:14:42.429Z,1010.05
2018-07-11T12:15:42.362Z,1010.08
2018-07-11T12:16:42.355Z,1010.16
2018-07-11T12:17:42.412Z,1010.13
2018-07-11T12:18:42.310Z,1010.12
2018-07-11T12:19:42.327Z,1010.14
2018-07-11T12:20:42.616Z,1010.15
2018-07-11T12:21:42.269Z,1010.16
2018-07-11T12:22:42.439Z,1010.16
2018-07-11T12:23:42.242Z,1010.15
2018-07-11T12:24:42.233Z,1010.21
2018-07-11T12:25:42.220Z,1010.15
2018-07-11T12:26:42.211Z,1010.15
2018-07-11T12:27:42.261Z,1010.09
2018-07-11T12:28:42.200Z,1010.01
2018-07-11T12:29:42.186Z,1009.97
2018-07-11T12:30:42.174Z,1009.94
2018-07-11T12:31:42.171Z,1009.95
2018-07-11T12:32:42.247Z,1009.94
2018-07-11T12:33:42.222Z,1010.01
2018-07-11T12:34:42.153Z,1009.98
2018-07-11T12:35:42.124Z,1009.97
2018-07-11T12:36:42.176Z,1010.00
2018-07-11T12:37:42.123Z,1010.03
2018-07-11T12:38:44.757Z,1009.95
2018-07-11T12:39:42.086Z,1009.99
2018-07-11T12:40:42.072Z,1009.90
2018-07-11T12:41:42.076Z,1009.89
2018-07-11T12:42:42.238Z,1009.95
2018-07-11T12:43:42.090Z,1009.88
2018-07-11T12:44:42.018Z,1009.90
2018-07-11T12:45:42.026Z,1009.90
2018-07-11T12:46:42.249Z,1009.89
2018-07-11T12:47:42.039Z,1009.87
2018-07-11T12:48:42.054Z,1009.88
2018-07-11T12:49:41.981Z,1009.85
2018-07-11T12:50:41.974Z,1009.85
2018-07-11T12:51:44.728Z,1009.86
2018-07-11T12:52:41.928Z,1009.84
2018-07-11T12:53:42.030Z,1009.73
2018-07-11T12:54:41.921Z,1009.79
2018-07-11T12:55:41.913Z,1009.73
2018-07-11T12:56:41.905Z,1009.72
2018-07-11T12:57:41.882Z,1009.74
2018-07-11T12:58:41.951Z,1009.71
2018-07-11T12:59:41.865Z,1009.68
2018-07-11T13:00:41.952Z,1009.65
2018-07-11T13:01:41.927Z,1009.73
2018-07-11T13:02:41.839Z,1009.73
2018-07-11T13:03:41.886Z,1009.71
2018-07-11T13:04:41.852Z,1009.67
2018-07-11T13:05:41.886Z,1009.67
2018-07-11T13:06:42.026Z,1009.61
2018-07-11T13:07:41.968Z,1009.58
2018-07-11T13:08:42.069Z,1009.65
2018-07-11T13:09:43.991Z,1009.64
2018-07-11T13:10:41.943Z,1009.60
2018-07-11T13:11:41.812Z,1009.67
2018-07-11T13:12:41.900Z,1009.64
2018-07-11T13:13:42.157Z,1009.64
2018-07-11T13:14:41.930Z,1009.57
2018-07-11T13:15:42.458Z,1009.53
2018-07-11T13:16:41.928Z,1009.53
2018-07-11T13:17:41.969Z,1009.53
2018-07-11T13:18:42.201Z,1009.47
2018-07-11T13:19:41.871Z,1009.35
2018-07-11T13:20:41.914Z,1009.45
2018-07-11T13:21:41.737Z,1009.42
2018-07-11T13:22:41.942Z,1009.46
2018-07-11T13:23:42.210Z,1009.46
2018-07-11T13:26:08.452Z,1009.42
2018-07-11T13:27:09.373Z,1009.45
2018-07-11T13:28:08.974Z,1009.54
2018-07-11T13:29:09.289Z,1009.45
2018-07-11T13:30:07.592Z,1009.47
2018-07-11T13:31:07.581Z,1009.38
2018-07-11T13:32:08.186Z,1009.39
2018-07-11T13:33:07.611Z,1009.47
2018-07-11T13:34:07.843Z,1009.47
2018-07-11T13:35:08.251Z,1009.37
2018-07-11T13:36:07.398Z,1009.32
2018-07-11T13:37:09.190Z,1009.44
2018-07-11T13:38:07.416Z,1009.51
2018-07-11T13:39:10.117Z,1009.59
2018-07-11T13:43:14.112Z,1009.29
